createdAt,value
2022-08-03T00:00:24.154Z,1.02
2022-08-03T00:02:50.767Z,0.70
2022-08-03T00:05:17.323Z,0.85
2022-08-03T00:07:43.901Z,0.70
2022-08-03T00:10:12.534Z,0.70
2022-08-03T00:12:39.079Z,0.70
2022-08-03T00:15:10.417Z,0.60
2022-08-03T00:17:52.597Z,0.82
2022-08-03T00:20:21.575Z,0.55
2022-08-03T00:22:48.433Z,0.65
2022-08-03T00:25:14.925Z,0.60
2022-08-03T00:27:41.472Z,1.27
2022-08-03T00:30:08.686Z,0.80
2022-08-03T00:32:35.199Z,1.17
2022-08-03T00:35:07.920Z,0.50
2022-08-03T00:37:40.677Z,0.60
2022-08-03T00:40:10.504Z,1.35
2022-08-03T00:42:59.958Z,0.85
2022-08-03T00:45:32.717Z,0.98
2022-08-03T00:48:00.338Z,0.68
2022-08-03T00:50:30.615Z,0.82
2022-08-03T00:52:59.463Z,1.23
2022-08-03T00:55:26.446Z,0.70
2022-08-03T00:57:54.102Z,1.15
2022-08-03T01:00:24.445Z,0.65
2022-08-03T01:02:51.625Z,0.50
2022-08-03T01:05:19.279Z,0.75
2022-08-03T01:07:52.713Z,0.68
2022-08-03T01:10:46.067Z,1.10
2022-08-03T01:14:01.661Z,1.98
2022-08-03T01:16:35.725Z,1.63
2022-08-03T01:19:30.137Z,0.50
2022-08-03T01:22:13.352Z,0.55
2022-08-03T01:24:45.842Z,0.47
2022-08-03T01:27:21.936Z,1.30
2022-08-03T01:30:02.286Z,1.05
2022-08-03T01:33:00.340Z,0.60
2022-08-03T01:35:43.574Z,0.68
2022-08-03T01:38:18.157Z,0.85
2022-08-03T01:40:47.213Z,0.68
2022-08-03T01:43:58.905Z,1.05
2022-08-03T01:46:07.507Z,0.90
2022-08-03T01:48:36.287Z,1.23
2022-08-03T01:51:03.001Z,1.00
2022-08-03T01:53:33.671Z,0.75
2022-08-03T01:56:02.722Z,1.35
2022-08-03T01:58:29.912Z,0.85
2022-08-03T02:01:01.461Z,1.92
2022-08-03T02:03:30.338Z,0.68
2022-08-03T02:06:59.813Z,1.08
2022-08-03T02:08:47.650Z,0.93
2022-08-03T02:11:14.713Z,0.82
2022-08-03T02:13:43.362Z,1.10
2022-08-03T02:16:11.743Z,1.27
2022-08-03T02:18:40.435Z,0.90
2022-08-03T02:21:10.888Z,0.88
2022-08-03T02:23:38.904Z,1.70
2022-08-03T02:26:09.337Z,0.70
2022-08-03T02:28:40.037Z,0.90
2022-08-03T02:31:13.149Z,0.90
2022-08-03T02:33:44.009Z,1.42
2022-08-03T02:36:14.085Z,1.35
2022-08-03T02:38:44.314Z,0.95
2022-08-03T02:41:21.105Z,1.10
2022-08-03T02:44:06.655Z,1.40
2022-08-03T02:46:38.540Z,1.00
2022-08-03T02:49:34.939Z,1.23
2022-08-03T02:51:54.757Z,1.73
2022-08-03T02:54:23.262Z,1.80
2022-08-03T02:56:52.010Z,0.90
2022-08-03T02:59:20.160Z,0.85
2022-08-03T03:01:47.603Z,0.98
2022-08-03T03:04:15.398Z,1.52
2022-08-03T03:06:44.105Z,1.00
2022-08-03T03:09:13.879Z,1.13
2022-08-03T03:11:42.277Z,2.55
2022-08-03T03:14:12.374Z,1.05
2022-08-03T03:16:40.589Z,1.50
2022-08-03T03:19:08.607Z,1.10
2022-08-03T03:21:37.109Z,0.80
2022-08-03T03:24:05.660Z,1.20
2022-08-03T03:26:33.259Z,1.58
2022-08-03T03:29:01.144Z,0.90
2022-08-03T03:31:27.790Z,1.02
2022-08-03T03:33:57.579Z,1.08
2022-08-03T03:36:24.114Z,1.00
2022-08-03T03:38:50.744Z,1.33
2022-08-03T03:41:20.871Z,1.10
2022-08-03T03:43:49.323Z,1.52
2022-08-03T03:46:18.195Z,1.30
2022-08-03T03:48:44.982Z,1.80
2022-08-03T03:51:11.761Z,1.40
2022-08-03T03:53:38.302Z,1.20
2022-08-03T03:56:04.958Z,1.90
2022-08-03T03:58:32.692Z,1.67
2022-08-03T04:01:00.235Z,1.40
2022-08-03T04:03:27.061Z,2.10
2022-08-03T04:06:12.283Z,1.10
2022-08-03T04:11:30.321Z,1.88
2022-08-03T04:14:12.039Z,1.58
2022-08-03T04:16:43.956Z,1.13
2022-08-03T04:19:22.607Z,1.48
2022-08-03T04:21:52.987Z,1.17
2022-08-03T04:24:27.088Z,1.77
2022-08-03T04:26:55.448Z,1.50
2022-08-03T04:29:23.848Z,1.58
2022-08-03T04:31:52.927Z,1.70
2022-08-03T04:34:19.609Z,1.50
2022-08-03T04:36:50.322Z,1.23
2022-08-03T04:39:23.330Z,1.50
2022-08-03T04:42:08.242Z,1.23
2022-08-03T04:44:40.727Z,1.23
2022-08-03T04:47:08.343Z,2.25
2022-08-03T04:49:38.647Z,1.83
2022-08-03T04:52:08.669Z,2.28
2022-08-03T04:54:50.058Z,1.65
2022-08-03T04:57:22.114Z,1.90
2022-08-03T05:00:02.152Z,1.73
2022-08-03T05:02:31.151Z,2.20
2022-08-03T05:04:57.865Z,1.90
2022-08-03T05:07:25.103Z,1.55
2022-08-03T05:10:01.781Z,1.60
2022-08-03T05:12:32.803Z,1.85
2022-08-03T05:15:00.274Z,2.72
2022-08-03T05:17:27.170Z,2.15
2022-08-03T05:19:53.774Z,1.25
2022-08-03T05:22:21.181Z,1.35
2022-08-03T05:24:48.115Z,1.50
2022-08-03T05:27:19.270Z,1.88
2022-08-03T05:29:47.026Z,1.70
2022-08-03T05:32:13.587Z,1.80
2022-08-03T05:34:40.175Z,1.77
2022-08-03T05:37:07.414Z,1.55
2022-08-03T05:39:34.660Z,2.25
2022-08-03T05:42:02.078Z,2.40
2022-08-03T05:44:28.920Z,2.35
2022-08-03T05:46:57.480Z,2.75
2022-08-03T05:49:23.992Z,2.30
2022-08-03T05:52:00.199Z,3.20
2022-08-03T05:54:56.356Z,2.50
2022-08-03T05:57:22.292Z,3.40
2022-08-03T05:59:55.607Z,3.90
2022-08-03T06:02:28.695Z,5.68
2022-08-03T06:04:55.374Z,4.43
2022-08-03T06:07:22.131Z,4.05
2022-08-03T06:10:33.385Z,4.50
2022-08-03T06:12:41.092Z,4.10
2022-08-03T06:15:08.091Z,3.88
2022-08-03T06:17:47.981Z,3.75
2022-08-03T06:20:17.917Z,3.75
2022-08-03T06:22:51.232Z,4.22
2022-08-03T06:25:27.358Z,4.43
2022-08-03T06:27:53.854Z,4.07
2022-08-03T06:30:21.478Z,3.83
2022-08-03T06:32:51.841Z,3.67
2022-08-03T06:35:19.054Z,3.00
2022-08-03T06:37:48.149Z,3.25
2022-08-03T06:40:21.687Z,3.33
2022-08-03T06:42:50.862Z,2.92
2022-08-03T06:45:18.091Z,3.45
2022-08-03T06:47:44.683Z,4.88
2022-08-03T06:50:16.108Z,4.80
2022-08-03T06:52:44.574Z,4.28
2022-08-03T06:55:11.479Z,5.00
2022-08-03T06:57:38.145Z,4.70
2022-08-03T07:00:09.607Z,5.07
2022-08-03T07:02:39.833Z,4.60
2022-08-03T07:05:07.932Z,4.47
2022-08-03T07:07:34.534Z,5.32
2022-08-03T07:10:02.236Z,3.70
2022-08-03T07:12:30.321Z,4.38
2022-08-03T07:15:02.830Z,5.10
2022-08-03T07:17:31.622Z,5.13
2022-08-03T07:19:59.111Z,5.15
2022-08-03T07:22:25.865Z,5.15
2022-08-03T07:24:52.476Z,4.88
2022-08-03T07:27:19.057Z,4.85
2022-08-03T07:29:45.543Z,4.75
2022-08-03T07:32:12.037Z,4.22
2022-08-03T07:34:38.545Z,4.30
2022-08-03T07:37:05.104Z,4.90
2022-08-03T07:39:31.633Z,5.00
2022-08-03T07:41:58.145Z,3.92
2022-08-03T07:44:24.651Z,3.90
2022-08-03T07:46:51.198Z,4.15
2022-08-03T07:49:18.872Z,5.10
2022-08-03T07:51:45.447Z,4.10
2022-08-03T07:54:11.984Z,3.55
2022-08-03T07:56:39.197Z,3.60
2022-08-03T07:59:05.866Z,3.10
2022-08-03T08:01:35.886Z,3.22
2022-08-03T08:04:02.534Z,4.15
2022-08-03T08:06:29.126Z,3.03
2022-08-03T08:08:59.465Z,3.45
2022-08-03T08:11:25.967Z,2.95
2022-08-03T08:13:52.496Z,3.03
2022-08-03T08:16:18.967Z,3.08
2022-08-03T08:18:45.491Z,3.83
2022-08-03T08:21:12.014Z,3.53
2022-08-03T08:23:43.121Z,3.45
2022-08-03T08:26:11.503Z,3.53
2022-08-03T08:28:38.288Z,3.75
2022-08-03T08:31:05.307Z,3.25
2022-08-03T08:33:48.310Z,3.95
2022-08-03T08:36:18.985Z,4.00
2022-08-03T08:38:45.848Z,3.20
2022-08-03T08:41:13.993Z,3.30
2022-08-03T08:43:43.041Z,4.50
2022-08-03T08:46:23.200Z,3.35
2022-08-03T08:48:51.724Z,3.67
2022-08-03T08:51:20.659Z,4.40
2022-08-03T08:53:51.806Z,3.85
2022-08-03T08:56:20.465Z,3.47
2022-08-03T08:58:51.741Z,4.10
2022-08-03T09:01:20.125Z,4.38
2022-08-03T09:03:47.332Z,3.47
2022-08-03T09:06:14.992Z,3.55
2022-08-03T09:08:41.945Z,2.75
2022-08-03T09:11:08.501Z,3.88
2022-08-03T09:13:39.075Z,3.50
2022-08-03T09:16:17.393Z,4.00
2022-08-03T09:18:46.196Z,2.88
2022-08-03T09:21:34.289Z,3.28
2022-08-03T09:24:04.865Z,3.17
2022-08-03T09:26:37.931Z,3.97
2022-08-03T09:29:14.969Z,2.67
2022-08-03T09:31:45.831Z,3.03
2022-08-03T09:34:17.880Z,2.67
2022-08-03T09:36:47.000Z,3.08
2022-08-03T09:39:40.195Z,2.08
2022-08-03T09:42:14.844Z,3.88
2022-08-03T09:47:13.915Z,3.63
2022-08-03T09:49:42.549Z,4.32
2022-08-03T09:52:32.823Z,3.83
2022-08-03T09:55:23.575Z,3.67
2022-08-03T09:58:09.190Z,4.18
2022-08-03T10:00:54.099Z,2.92
2022-08-03T10:03:20.876Z,3.47
2022-08-03T10:05:47.435Z,3.17
2022-08-03T10:08:19.871Z,4.30
2022-08-03T10:10:49.683Z,3.63
2022-08-03T10:13:18.470Z,3.90
2022-08-03T10:16:23.718Z,3.22
2022-08-03T10:18:32.907Z,3.97
2022-08-03T10:21:04.538Z,3.45
2022-08-03T10:23:34.865Z,4.05
2022-08-03T10:26:04.928Z,4.07
2022-08-03T10:28:39.199Z,3.95
2022-08-03T10:31:10.189Z,4.65
2022-08-03T10:33:50.806Z,3.63
2022-08-03T10:36:23.975Z,4.13
2022-08-03T10:38:56.576Z,4.68
2022-08-03T10:41:26.838Z,4.35
2022-08-03T10:44:03.045Z,4.40
2022-08-03T10:46:29.631Z,4.28
2022-08-03T10:48:56.900Z,4.18
2022-08-03T10:51:24.201Z,4.70
2022-08-03T10:53:55.264Z,4.45
2022-08-03T10:56:53.488Z,4.40
2022-08-03T10:59:59.348Z,3.67
2022-08-03T11:03:08.831Z,4.13
2022-08-03T11:05:55.552Z,4.03
2022-08-03T11:08:30.797Z,3.38
2022-08-03T11:11:03.762Z,5.18
2022-08-03T11:13:33.508Z,3.75
2022-08-03T11:16:04.898Z,4.28
2022-08-03T11:18:34.941Z,3.63
2022-08-03T11:21:02.439Z,3.60
2022-08-03T11:24:05.164Z,3.15
2022-08-03T11:26:33.627Z,3.83
2022-08-03T11:29:29.672Z,4.15
2022-08-03T11:31:56.502Z,5.07
2022-08-03T11:34:24.529Z,4.72
2022-08-03T11:37:26.416Z,4.13
2022-08-03T11:39:57.209Z,4.15
2022-08-03T11:42:23.948Z,3.75
2022-08-03T11:44:51.530Z,3.33
2022-08-03T11:47:20.192Z,4.57
2022-08-03T11:49:48.223Z,2.83
2022-08-03T11:52:16.936Z,3.47
2022-08-03T11:54:44.028Z,3.20
2022-08-03T11:57:10.654Z,2.53
2022-08-03T11:59:38.738Z,3.83
2022-08-03T12:02:11.078Z,2.85
2022-08-03T12:04:58.775Z,4.25
2022-08-03T12:08:03.846Z,3.47
2022-08-03T12:10:16.070Z,3.55
2022-08-03T12:12:46.849Z,3.13
2022-08-03T12:15:13.591Z,2.85
2022-08-03T12:17:41.369Z,3.03
2022-08-03T12:20:10.284Z,2.97
2022-08-03T12:22:40.084Z,3.60
2022-08-03T12:25:08.177Z,2.90
2022-08-03T12:27:34.929Z,2.95
2022-08-03T12:30:02.219Z,2.65
2022-08-03T12:32:30.195Z,2.83
2022-08-03T12:35:01.084Z,2.45
2022-08-03T12:37:28.615Z,2.58
2022-08-03T12:40:02.982Z,2.90
2022-08-03T12:42:36.370Z,2.92
2022-08-03T12:45:23.160Z,2.30
2022-08-03T12:47:53.281Z,2.00
2022-08-03T12:50:31.948Z,2.42
2022-08-03T12:53:00.237Z,2.45
2022-08-03T12:55:40.058Z,2.17
2022-08-03T12:58:33.511Z,2.60
2022-08-03T13:01:00.364Z,2.35
2022-08-03T13:03:39.458Z,1.88
2022-08-03T13:06:20.333Z,2.17
2022-08-03T13:08:48.239Z,2.00
2022-08-03T13:11:55.426Z,1.90
2022-08-03T13:14:17.481Z,2.13
2022-08-03T13:16:47.255Z,2.22
2022-08-03T13:19:15.604Z,1.70
2022-08-03T13:22:02.168Z,1.73
2022-08-03T13:24:30.346Z,1.65
2022-08-03T13:26:57.062Z,1.75
2022-08-03T13:29:23.552Z,1.60
2022-08-03T13:31:50.198Z,1.98
2022-08-03T13:34:22.957Z,1.52
2022-08-03T13:37:08.503Z,1.67
2022-08-03T13:39:58.238Z,1.67
2022-08-03T13:42:22.810Z,1.60
2022-08-03T13:44:49.348Z,2.03
2022-08-03T13:47:16.215Z,0.90
2022-08-03T13:49:42.903Z,1.27
2022-08-03T13:52:23.565Z,1.50
2022-08-03T13:54:50.080Z,1.63
2022-08-03T13:58:04.379Z,1.10
2022-08-03T14:00:04.719Z,0.82
2022-08-03T14:02:31.274Z,1.13
2022-08-03T14:04:57.841Z,0.80
2022-08-03T14:07:24.467Z,1.20
2022-08-03T14:09:50.939Z,1.05
2022-08-03T14:12:17.496Z,0.98
2022-08-03T14:14:44.048Z,1.45
2022-08-03T14:17:10.626Z,1.90
2022-08-03T14:19:52.538Z,0.70
2022-08-03T14:22:20.314Z,1.02
2022-08-03T14:24:46.868Z,0.95
2022-08-03T14:27:13.447Z,0.80
2022-08-03T14:29:39.944Z,0.95
2022-08-03T14:32:09.965Z,1.08
2022-08-03T14:34:37.336Z,0.60
2022-08-03T14:37:03.841Z,0.77
2022-08-03T14:39:58.350Z,0.77
2022-08-03T14:42:16.930Z,0.70
2022-08-03T14:44:43.546Z,0.60
2022-08-03T14:47:10.808Z,0.80
2022-08-03T14:50:36.290Z,1.05
2022-08-03T14:52:25.073Z,0.68
2022-08-03T14:54:51.644Z,0.73
2022-08-03T14:57:18.284Z,1.17
2022-08-03T14:59:57.073Z,0.82
2022-08-03T15:02:25.131Z,1.00
2022-08-03T15:04:52.682Z,0.75
2022-08-03T15:07:20.855Z,1.50
2022-08-03T15:09:47.993Z,1.30
2022-08-03T15:12:14.532Z,0.93
2022-08-03T15:14:41.179Z,1.00
2022-08-03T15:17:08.133Z,0.82
2022-08-03T15:20:02.236Z,1.42
2022-08-03T15:22:25.319Z,1.20
2022-08-03T15:26:02.156Z,0.80
2022-08-03T15:28:03.341Z,1.38
2022-08-03T15:30:31.389Z,1.50
2022-08-03T15:32:57.908Z,1.20
2022-08-03T15:35:24.552Z,2.55
2022-08-03T15:37:51.127Z,4.65
2022-08-03T15:40:17.684Z,1.23
2022-08-03T15:42:44.165Z,0.52
2022-08-03T15:45:11.176Z,1.50
2022-08-03T15:47:39.354Z,1.27
2022-08-03T15:50:09.595Z,1.15
2022-08-03T15:52:36.471Z,0.93
2022-08-03T15:55:03.379Z,0.50
2022-08-03T15:57:29.917Z,1.13
2022-08-03T15:59:56.406Z,0.82
2022-08-03T16:02:22.922Z,1.15
2022-08-03T16:04:49.525Z,0.57
2022-08-03T16:07:16.362Z,0.70
2022-08-03T16:09:44.029Z,0.65
2022-08-03T16:12:15.849Z,0.90
2022-08-03T16:14:51.822Z,0.98
2022-08-03T16:17:19.744Z,1.15
2022-08-03T16:19:46.491Z,0.52
2022-08-03T16:22:13.431Z,1.50
2022-08-03T16:24:41.288Z,1.05
2022-08-03T16:27:25.039Z,0.70
2022-08-03T16:29:54.596Z,0.70
2022-08-03T16:32:21.189Z,1.02
2022-08-03T16:34:48.226Z,0.80
2022-08-03T16:37:37.725Z,0.88
2022-08-03T16:40:02.252Z,1.25
2022-08-03T16:42:28.889Z,0.63
2022-08-03T16:44:55.459Z,0.95
2022-08-03T16:47:22.950Z,1.27
2022-08-03T16:49:54.780Z,0.98
2022-08-03T16:52:23.761Z,0.70
2022-08-03T16:54:53.604Z,0.80
2022-08-03T16:57:56.572Z,0.50
2022-08-03T17:00:33.357Z,0.90
2022-08-03T17:03:00.971Z,1.13
2022-08-03T17:05:43.735Z,0.60
2022-08-03T17:08:15.440Z,1.02
2022-08-03T17:10:45.325Z,0.93
2022-08-03T17:13:21.475Z,0.90
2022-08-03T17:15:57.901Z,0.57
2022-08-03T17:18:32.368Z,0.80
2022-08-03T17:21:03.936Z,0.57
2022-08-03T17:23:46.321Z,0.50
2022-08-03T17:26:21.697Z,0.65
2022-08-03T17:28:57.418Z,0.60
2022-08-03T17:31:31.223Z,0.70
2022-08-03T17:34:01.269Z,0.60
2022-08-03T17:36:47.677Z,0.70
2022-08-03T17:39:16.898Z,0.70
2022-08-03T17:41:49.871Z,0.80
2022-08-03T17:44:35.087Z,0.60
2022-08-03T17:47:07.057Z,0.40
2022-08-03T17:49:40.063Z,1.00
2022-08-03T17:52:27.351Z,0.50
2022-08-03T17:55:56.877Z,0.80
2022-08-03T17:58:03.350Z,0.75
2022-08-03T18:00:51.516Z,0.77
2022-08-03T18:03:58.040Z,1.00
2022-08-03T18:06:28.623Z,0.50
2022-08-03T18:09:04.841Z,1.13
2022-08-03T18:11:35.666Z,0.80
2022-08-03T18:14:31.702Z,0.80
2022-08-03T18:17:04.811Z,0.90
2022-08-03T18:20:02.660Z,0.68
2022-08-03T18:22:25.287Z,0.47
2022-08-03T18:24:52.990Z,0.60
2022-08-03T18:27:21.828Z,0.63
2022-08-03T18:29:49.949Z,0.90
2022-08-03T18:32:18.236Z,0.75
2022-08-03T18:34:53.685Z,0.82
2022-08-03T18:37:25.193Z,1.17
2022-08-03T18:39:55.811Z,0.80
2022-08-03T18:42:26.499Z,0.80
2022-08-03T18:44:56.128Z,0.70
2022-08-03T18:47:50.456Z,0.52
2022-08-03T18:50:24.444Z,0.80
2022-08-03T18:53:02.616Z,0.50
2022-08-03T18:55:52.243Z,0.60
2022-08-03T18:59:00.153Z,0.55
2022-08-03T19:02:00.419Z,0.65
2022-08-03T19:04:34.080Z,0.50
2022-08-03T19:07:11.226Z,1.00
2022-08-03T19:09:48.987Z,1.70
2022-08-03T19:15:37.011Z,0.50
2022-08-03T19:18:10.905Z,0.60
2022-08-03T19:20:37.798Z,0.60
2022-08-03T19:23:04.504Z,0.80
2022-08-03T19:25:38.325Z,0.73
2022-08-03T19:28:07.151Z,0.60
2022-08-03T19:30:46.443Z,0.47
2022-08-03T19:33:20.398Z,0.50
2022-08-03T19:35:55.143Z,1.13
2022-08-03T19:41:02.024Z,1.27
2022-08-03T19:43:52.747Z,1.15
2022-08-03T19:46:21.997Z,0.80
2022-08-03T19:48:55.810Z,0.70
2022-08-03T19:51:27.653Z,0.82
2022-08-03T19:54:14.863Z,1.05
2022-08-03T19:56:46.412Z,0.50
2022-08-03T19:59:15.653Z,0.60
2022-08-03T20:01:50.624Z,0.80
2022-08-03T20:04:18.648Z,0.50
2022-08-03T20:06:47.883Z,0.50
2022-08-03T20:09:16.750Z,0.65
2022-08-03T20:11:45.170Z,0.75
2022-08-03T20:14:13.268Z,0.73
2022-08-03T20:16:48.677Z,0.32
2022-08-03T20:19:16.670Z,0.80
2022-08-03T20:21:49.998Z,0.77
2022-08-03T20:24:25.365Z,1.00
2022-08-03T20:30:05.199Z,1.25
2022-08-03T20:32:16.971Z,0.80
2022-08-03T20:34:44.409Z,1.08
2022-08-03T20:37:16.204Z,0.95
2022-08-03T20:39:48.182Z,1.00
2022-08-03T20:42:21.064Z,0.95
2022-08-03T20:45:04.700Z,0.90
2022-08-03T20:47:36.735Z,0.65
2022-08-03T20:50:16.963Z,0.57
2022-08-03T20:52:49.310Z,1.10
2022-08-03T20:55:18.253Z,0.70
2022-08-03T20:57:49.117Z,0.70
2022-08-03T21:00:19.514Z,2.33
2022-08-03T21:02:49.093Z,0.90
2022-08-03T21:05:15.631Z,0.93
2022-08-03T21:08:05.288Z,1.15
2022-08-03T21:10:37.815Z,1.25
2022-08-03T21:13:01.613Z,0.88
2022-08-03T21:13:30.744Z,1.20
2022-08-03T21:16:06.801Z,0.98
2022-08-03T21:18:49.012Z,0.90
2022-08-03T21:21:17.585Z,0.85
2022-08-03T21:23:49.549Z,0.57
2022-08-03T21:26:18.776Z,0.90
2022-08-03T21:28:47.147Z,0.82
2022-08-03T21:31:23.678Z,1.33
2022-08-03T21:33:57.465Z,0.95
2022-08-03T21:36:26.830Z,0.60
2022-08-03T21:38:55.978Z,1.27
2022-08-03T21:41:28.195Z,1.63
2022-08-03T21:43:54.859Z,0.95
2022-08-03T21:46:22.459Z,1.10
2022-08-03T21:48:55.035Z,1.25
2022-08-03T21:51:24.990Z,0.98
2022-08-03T21:54:02.314Z,1.10
2022-08-03T21:56:51.294Z,1.00
2022-08-03T21:59:19.982Z,0.93
2022-08-03T22:01:55.442Z,2.10
2022-08-03T22:04:55.308Z,1.02
2022-08-03T22:07:12.319Z,1.70
2022-08-03T22:09:38.953Z,1.30
2022-08-03T22:12:06.303Z,1.25
2022-08-03T22:14:33.428Z,0.90
2022-08-03T22:17:00.734Z,0.80
2022-08-03T22:19:30.151Z,1.10
2022-08-03T22:21:57.392Z,0.75
2022-08-03T22:24:28.651Z,1.27
2022-08-03T22:27:14.714Z,1.20
2022-08-03T22:29:43.170Z,0.98
2022-08-03T22:32:09.872Z,1.30
2022-08-03T22:34:37.582Z,1.13
2022-08-03T22:37:05.046Z,0.80
2022-08-03T22:39:32.296Z,1.60
2022-08-03T22:41:59.793Z,1.02
2022-08-03T22:44:27.692Z,1.35
2022-08-03T22:46:55.577Z,0.80
2022-08-03T22:49:22.506Z,1.08
2022-08-03T22:51:51.909Z,1.15
2022-08-03T22:54:18.770Z,1.20
2022-08-03T22:56:46.991Z,1.20
2022-08-03T22:59:40.283Z,0.80
2022-08-03T23:02:20.037Z,1.17
2022-08-03T23:04:56.611Z,1.00
2022-08-03T23:07:50.842Z,1.30
2022-08-03T23:10:17.443Z,0.60
2022-08-03T23:12:47.406Z,1.17
2022-08-03T23:15:14.259Z,1.33
2022-08-03T23:17:57.545Z,0.82
2022-08-03T23:20:26.830Z,2.03
2022-08-03T23:22:54.795Z,1.05
2022-08-03T23:25:22.043Z,1.35
2022-08-03T23:28:05.488Z,1.05
2022-08-03T23:30:34.723Z,0.70
2022-08-03T23:33:02.897Z,0.88
2022-08-03T23:36:28.467Z,0.80
2022-08-03T23:38:36.801Z,1.15
2022-08-03T23:41:05.065Z,1.10
2022-08-03T23:43:50.909Z,0.93
2022-08-03T23:46:19.773Z,1.73
2022-08-03T23:48:46.397Z,1.08
2022-08-03T23:51:38.542Z,1.02
2022-08-03T23:54:29.534Z,1.10
2022-08-03T23:57:43.507Z,0.80
